Time,TemperatureF,DewpointF,PressureIn,WindDirection,WindDirectionDegrees,WindSpeedMPH,WindSpeedGustMPH,Humidity,HourlyPrecipIn,Conditions,Clouds,dailyrainin,SoftwareType,DateUTC
2013-01-10 00:12:00,38.3,32.0,30.26,West,277,2.0,6.0,79,0.00,,,0.00,weatherlink.com 1.10,2013-01-10 05:12:00,
2013-01-10 00:58:00,36.1,31.0,30.28,NNE,21,0.0,3.0,81,0.00,,,0.00,weatherlink.com 1.10,2013-01-10 05:58:00,
2013-01-10 01:13:00,35.3,31.0,30.29,NNE,23,0.0,3.0,83,0.00,,,0.00,weatherlink.com 1.10,2013-01-10 06:13:00,
2013-01-10 01:28:00,35.1,30.0,30.30,NNE,14,1.0,2.0,83,0.00,,,0.00,weatherlink.com 1.10,2013-01-10 06:28:00,
2013-01-10 01:43:00,35.4,30.0,30.31,NNW,333,0.0,2.0,82,0.00,,,0.00,weatherlink.com 1.10,2013-01-10 06:43:00,
2013-01-10 01:58:00,35.7,30.0,30.33,WNW,290,0.0,4.0,80,0.00,,,0.00,weatherlink.com 1.10,2013-01-10 06:58:00,
2013-01-10 02:13:00,36.1,30.0,30.34,North,355,1.0,3.0,78,0.00,,,0.00,weatherlink.com 1.10,2013-01-10 07:13:00,
2013-01-10 02:28:00,35.4,29.0,30.34,NNW,338,1.0,2.0,78,0.00,,,0.00,weatherlink.com 1.10,2013-01-10 07:28:00,
2013-01-10 02:43:00,34.7,29.0,30.35,WNW,294,0.0,6.0,79,0.00,,,0.00,weatherlink.com 1.10,2013-01-10 07:43:00,
2013-01-10 02:58:00,35.0,28.0,30.35,WSW,257,3.0,10.0,76,0.00,,,0.00,weatherlink.com 1.10,2013-01-10 07:58:00,
2013-01-10 03:13:00,36.4,28.0,30.36,NNW,346,3.0,9.0,72,0.00,,,0.00,weatherlink.com 1.10,2013-01-10 08:13:00,
2013-01-10 03:28:00,37.2,28.0,30.36,WNW,288,1.0,4.0,70,0.00,,,0.00,weatherlink.com 1.10,2013-01-10 08:28:00,
2013-01-10 03:43:00,36.9,28.0,30.37,West,262,2.0,7.0,70,0.00,,,0.00,weatherlink.com 1.10,2013-01-10 08:43:00,
2013-01-10 03:58:00,37.6,28.0,30.37,SW,215,3.0,6.0,69,0.00,,,0.00,weatherlink.com 1.10,2013-01-10 08:58:00,
2013-01-10 04:13:00,37.7,28.0,30.38,NNW,336,1.0,7.0,68,0.00,,,0.00,weatherlink.com 1.10,2013-01-10 09:13:00,
2013-01-10 04:28:00,37.0,28.0,30.38,NNW,333,0.0,4.0,70,0.00,,,0.00,weatherlink.com 1.10,2013-01-10 09:28:00,
2013-01-10 04:43:00,36.5,28.0,30.37,NW,305,4.0,8.0,70,0.00,,,0.00,weatherlink.com 1.10,2013-01-10 09:43:00,
2013-01-10 04:58:00,37.3,28.0,30.38,West,269,3.0,14.0,69,0.00,,,0.00,weatherlink.com 1.10,2013-01-10 09:58:00,
2013-01-10 05:13:00,37.8,28.0,30.38,WSW,243,4.0,18.0,68,0.00,,,0.00,weatherlink.com 1.10,2013-01-10 10:13:00,
2013-01-10 05:28:00,38.2,27.0,30.39,NW,308,3.0,9.0,65,0.00,,,0.00,weatherlink.com 1.10,2013-01-10 10:28:00,
2013-01-10 05:43:00,37.9,27.0,30.39,NW,311,2.0,10.0,66,0.00,,,0.00,weatherlink.com 1.10,2013-01-10 10:43:00,
2013-01-10 05:58:00,37.7,27.0,30.40,West,263,2.0,7.0,65,0.00,,,0.00,weatherlink.com 1.10,2013-01-10 10:58:00,
2013-01-10 06:13:00,37.7,27.0,30.41,West,262,2.0,10.0,65,0.00,,,0.00,weatherlink.com 1.10,2013-01-10 11:13:00,
2013-01-10 06:28:00,37.8,27.0,30.41,West,279,3.0,11.0,65,0.00,,,0.00,weatherlink.com 1.10,2013-01-10 11:28:00,
2013-01-10 06:44:00,37.8,27.0,30.42,SW,225,1.0,6.0,64,0.00,,,0.00,weatherlink.com 1.10,2013-01-10 11:44:00,
2013-01-10 06:58:00,37.3,27.0,30.43,WNW,287,0.0,9.0,66,0.00,,,0.00,weatherlink.com 1.10,2013-01-10 11:58:00,
2013-01-10 07:13:00,36.7,26.0,30.43,NNW,330,0.0,6.0,66,0.00,,,0.00,weatherlink.com 1.10,2013-01-10 12:13:00,
2013-01-10 07:28:00,36.5,26.0,30.44,NW,319,2.0,6.0,67,0.00,,,0.00,weatherlink.com 1.10,2013-01-10 12:28:00,
2013-01-10 07:44:00,36.6,27.0,30.46,NNE,15,0.0,2.0,67,0.00,,,0.00,weatherlink.com 1.10,2013-01-10 12:44:00,
2013-01-10 07:59:00,36.3,27.0,30.46,NNW,346,3.0,3.0,68,0.00,,,0.00,weatherlink.com 1.10,2013-01-10 12:59:00,
2013-01-10 08:14:00,36.9,27.0,30.47,NNW,347,3.0,6.0,67,0.00,,,0.00,weatherlink.com 1.10,2013-01-10 13:14:00,
2013-01-10 08:29:00,37.8,27.0,30.47,North,355,5.0,8.0,65,0.00,,,0.00,weatherlink.com 1.10,2013-01-10 13:29:00,
2013-01-10 08:44:00,38.5,27.0,30.48,NNW,341,3.0,10.0,64,0.00,,,0.00,weatherlink.com 1.10,2013-01-10 13:44:00,
2013-01-10 08:59:00,39.3,28.0,30.49,North,5,1.0,8.0,63,0.00,,,0.00,weatherlink.com 1.10,2013-01-10 13:59:00,
2013-01-10 09:14:00,39.9,27.0,30.50,North,355,4.0,11.0,60,0.00,,,0.00,weatherlink.com 1.10,2013-01-10 14:14:00,
2013-01-10 09:29:00,40.2,27.0,30.50,West,276,6.0,9.0,60,0.00,,,0.00,weatherlink.com 1.10,2013-01-10 14:29:00,
2013-01-10 09:44:00,40.7,27.0,30.51,NNW,342,4.0,10.0,58,0.00,,,0.00,weatherlink.com 1.10,2013-01-10 14:44:00,
2013-01-10 09:59:00,41.3,27.0,30.51,North,355,4.0,14.0,57,0.00,,,0.00,weatherlink.com 1.10,2013-01-10 14:59:00,
2013-01-10 10:14:00,42.2,28.0,30.51,West,279,2.0,9.0,57,0.00,,,0.00,weatherlink.com 1.10,2013-01-10 15:14:00,
2013-01-10 10:29:00,42.8,27.0,30.51,NW,321,4.0,9.0,55,0.00,,,0.00,weatherlink.com 1.10,2013-01-10 15:29:00,
2013-01-10 10:44:00,43.1,27.0,30.51,NW,318,3.0,12.0,54,0.00,,,0.00,weatherlink.com 1.10,2013-01-10 15:44:00,
2013-01-10 10:59:00,42.6,26.0,30.50,NW,305,3.0,16.0,53,0.00,,,0.00,weatherlink.com 1.10,2013-01-10 15:59:00,
2013-01-10 11:14:00,42.8,27.0,30.50,WSW,253,7.0,12.0,53,0.00,,,0.00,weatherlink.com 1.10,2013-01-10 16:14:00,
2013-01-10 11:29:00,43.0,27.0,30.49,SSW,210,3.0,12.0,53,0.00,,,0.00,weatherlink.com 1.10,2013-01-10 16:29:00,
2013-01-10 11:44:00,43.7,27.0,30.49,West,260,3.0,11.0,52,0.00,,,0.00,weatherlink.com 1.10,2013-01-10 16:44:00,
2013-01-10 11:59:00,44.1,27.0,30.48,ENE,78,1.0,9.0,51,0.00,,,0.00,weatherlink.com 1.10,2013-01-10 16:59:00,
2013-01-10 12:14:00,44.6,27.0,30.48,West,278,4.0,10.0,50,0.00,,,0.00,weatherlink.com 1.10,2013-01-10 17:14:00,
2013-01-10 12:29:00,45.1,27.0,30.47,NNE,13,1.0,8.0,50,0.00,,,0.00,weatherlink.com 1.10,2013-01-10 17:29:00,
2013-01-10 12:44:00,45.6,27.0,30.47,NNW,342,2.0,11.0,49,0.00,,,0.00,weatherlink.com 1.10,2013-01-10 17:44:00,
2013-01-10 12:59:00,45.0,27.0,30.47,NW,325,0.0,10.0,50,0.00,,,0.00,weatherlink.com 1.10,2013-01-10 17:59:00,
2013-01-10 13:14:00,45.0,27.0,30.47,West,279,4.0,9.0,49,0.00,,,0.00,weatherlink.com 1.10,2013-01-10 18:14:00,
2013-01-10 13:29:00,45.7,27.0,30.47,West,269,2.0,9.0,49,0.00,,,0.00,weatherlink.com 1.10,2013-01-10 18:29:00,
2013-01-10 13:44:00,46.5,28.0,30.47,West,266,3.0,9.0,48,0.00,,,0.00,weatherlink.com 1.10,2013-01-10 18:44:00,
2013-01-10 13:59:00,47.1,27.0,30.48,WNW,286,3.0,9.0,46,0.00,,,0.00,weatherlink.com 1.10,2013-01-10 18:59:00,
2013-01-10 14:14:00,47.0,27.0,30.48,WSW,254,3.0,9.0,46,0.00,,,0.00,weatherlink.com 1.10,2013-01-10 19:14:00,
2013-01-10 14:29:00,47.2,27.0,30.48,West,279,2.0,8.0,45,0.00,,,0.00,weatherlink.com 1.10,2013-01-10 19:29:00,
2013-01-10 14:44:00,47.5,27.0,30.48,NW,311,1.0,7.0,45,0.00,,,0.00,weatherlink.com 1.10,2013-01-10 19:44:00,
2013-01-10 15:00:00,47.9,28.0,30.49,West,266,4.0,9.0,46,0.00,,,0.00,weatherlink.com 1.10,2013-01-10 20:00:00,
2013-01-10 15:15:00,48.2,28.0,30.48,WSW,250,4.0,7.0,46,0.00,,,0.00,weatherlink.com 1.10,2013-01-10 20:15:00,
2013-01-10 15:30:00,48.0,26.0,30.49,West,280,2.0,6.0,43,0.00,,,0.00,weatherlink.com 1.10,2013-01-10 20:30:00,
2013-01-10 15:45:00,47.5,26.0,30.49,West,277,2.0,5.0,44,0.00,,,0.00,weatherlink.com 1.10,2013-01-10 20:45:00,
2013-01-10 16:00:00,47.2,27.0,30.49,West,267,2.0,8.0,45,0.00,,,0.00,weatherlink.com 1.10,2013-01-10 21:00:00,
2013-01-10 16:15:00,46.7,27.0,30.48,WNW,294,1.0,6.0,46,0.00,,,0.00,weatherlink.com 1.10,2013-01-10 21:15:00,
2013-01-10 16:30:00,46.2,27.0,30.49,NNW,345,4.0,4.0,47,0.00,,,0.00,weatherlink.com 1.10,2013-01-10 21:30:00,
2013-01-10 16:45:00,45.3,26.0,30.49,WNW,296,4.0,4.0,48,0.00,,,0.00,weatherlink.com 1.10,2013-01-10 21:45:00,
2013-01-10 17:00:00,44.2,26.0,30.49,NNW,332,0.0,2.0,50,0.00,,,0.00,weatherlink.com 1.10,2013-01-10 22:00:00,
2013-01-10 17:15:00,43.3,26.0,30.50,NW,309,0.0,1.0,51,0.00,,,0.00,weatherlink.com 1.10,2013-01-10 22:15:00,
2013-01-10 17:30:00,42.3,26.0,30.50,NW,310,0.0,1.0,53,0.00,,,0.00,weatherlink.com 1.10,2013-01-10 22:30:00,
2013-01-10 17:45:00,40.9,26.0,30.51,NNW,343,0.0,2.0,56,0.00,,,0.00,weatherlink.com 1.10,2013-01-10 22:45:00,
2013-01-10 18:00:00,40.6,26.0,30.51,North,351,0.0,2.0,57,0.00,,,0.00,weatherlink.com 1.10,2013-01-10 23:00:00,
2013-01-10 18:15:00,40.0,26.0,30.52,NNE,21,0.0,1.0,57,0.00,,,0.00,weatherlink.com 1.10,2013-01-10 23:15:00,
2013-01-10 18:30:00,38.8,26.0,30.52,NNE,21,0.0,1.0,60,0.00,,,0.00,weatherlink.com 1.10,2013-01-10 23:30:00,
2013-01-10 18:45:00,38.2,26.0,30.52,NW,323,0.0,2.0,62,0.00,,,0.00,weatherlink.com 1.10,2013-01-10 23:45:00,
2013-01-10 19:00:00,38.6,26.0,30.52,NE,49,1.0,2.0,61,0.00,,,0.00,weatherlink.com 1.10,2013-01-11 00:00:00,
2013-01-10 19:15:00,38.5,26.0,30.52,North,10,1.0,4.0,62,0.00,,,0.00,weatherlink.com 1.10,2013-01-11 00:15:00,
2013-01-10 19:30:00,38.6,26.0,30.51,NNE,26,1.0,3.0,62,0.00,,,0.00,weatherlink.com 1.10,2013-01-11 00:30:00,
2013-01-10 19:45:00,38.1,27.0,30.50,NE,42,0.0,4.0,65,0.00,,,0.00,weatherlink.com 1.10,2013-01-11 00:45:00,
2013-01-10 20:00:00,37.2,27.0,30.51,North,355,1.0,4.0,66,0.00,,,0.00,weatherlink.com 1.10,2013-01-11 01:00:00,
2013-01-10 20:15:00,37.1,27.0,30.52,North,350,0.0,0.0,66,0.00,,,0.00,weatherlink.com 1.10,2013-01-11 01:15:00,
2013-01-10 20:30:00,36.2,27.0,30.53,North,350,1.0,2.0,68,0.00,,,0.00,weatherlink.com 1.10,2013-01-11 01:30:00,
2013-01-10 20:45:00,36.4,26.0,30.53,North,350,1.0,2.0,67,0.00,,,0.00,weatherlink.com 1.10,2013-01-11 01:45:00,
2013-01-10 21:00:00,36.9,26.0,30.51,WNW,300,0.0,2.0,66,0.00,,,0.00,weatherlink.com 1.10,2013-01-11 02:00:00,
2013-01-10 21:15:00,35.5,27.0,30.51,ENE,59,1.0,3.0,70,0.00,,,0.00,weatherlink.com 1.10,2013-01-11 02:15:00,
2013-01-10 21:30:00,34.7,27.0,30.51,SE,145,0.0,2.0,73,0.00,,,0.00,weatherlink.com 1.10,2013-01-11 02:30:00,
2013-01-10 21:45:00,34.1,27.0,30.51,NE,39,0.0,2.0,74,0.00,,,0.00,weatherlink.com 1.10,2013-01-11 02:45:00,
2013-01-10 22:00:00,34.7,27.0,30.51,SSE,156,0.0,3.0,74,0.00,,,0.00,weatherlink.com 1.10,2013-01-11 03:00:00,
2013-01-10 22:15:00,34.3,26.0,30.51,SSE,155,0.0,1.0,73,0.00,,,0.00,weatherlink.com 1.10,2013-01-11 03:15:00,
2013-01-10 22:30:00,33.7,27.0,30.51,WSW,241,0.0,1.0,75,0.00,,,0.00,weatherlink.com 1.10,2013-01-11 03:30:00,
2013-01-10 22:45:00,33.4,27.0,30.52,SSE,163,0.0,2.0,76,0.00,,,0.00,weatherlink.com 1.10,2013-01-11 03:45:00,
2013-01-10 23:00:00,33.2,26.0,30.52,SSE,165,0.0,1.0,76,0.00,,,0.00,weatherlink.com 1.10,2013-01-11 04:00:00,
2013-01-10 23:15:00,33.4,27.0,30.52,East,99,0.0,2.0,76,0.00,,,0.00,weatherlink.com 1.10,2013-01-11 04:15:00,
2013-01-10 23:30:00,33.2,26.0,30.52,East,100,0.0,1.0,76,0.00,,,0.00,weatherlink.com 1.10,2013-01-11 04:30:00,
2013-01-10 23:45:00,33.0,27.0,30.52,East,100,0.0,1.0,77,0.00,,,0.00,weatherlink.com 1.10,2013-01-11 04:45:00,